Terminal Aerodrome Forecast
Issued by NWS

Home | Current Version | Previous Version | Text Only | Print | Product List | Glossary Off
Versions: 1 2 3 4 5 6 7 8 9 10 11 12 13 14 15 16

678
FTUS41 KCLE 131128
TAFFDY
TAF
KFDY 131128Z 1312/1412 32010KT P6SM SCT035
     FM131500 30014G22KT P6SM BKN035
      TEMPO 1316/1319 5SM -SHSN
     FM132300 28008KT P6SM BKN035=

USA.gov is the U.S. government's official web portal to all federal, state and local government web resources and services.